Time;durP1;ratioP1;P1;durP2;ratioP2;P2;SDS_P1;SDS_P2;PMS_P1;PMS_P2;Temp;Humidity;BMP_temperature;BMP_pressure;BME280_temperature;BME280_humidity;BME280_pressure;Samples;Min_cycle;Max_cycle;Signal;HPM_P1;HPM_P2
2023/06/13 00:02:10;;;;;;;5.63;5.20;;;;;;;18.02;97.14;94537.97;4958732;28;20221;-67
2023/06/13 00:04:43;;;;;;;5.05;4.60;;;;;;;17.96;95.68;94543.53;4958655;28;20213;-68
2023/06/13 00:07:10;;;;;;;5.68;5.07;;;;;;;17.96;96.60;94543.53;4961928;28;20756;-65
2023/06/13 00:09:36;;;;;;;6.05;5.30;;;;;;;18.00;96.77;94534.69;4966173;28;20241;-67
2023/06/13 00:12:03;;;;;;;9.98;5.32;;;;;;;18.00;96.18;94532.13;4966749;28;20244;-66
2023/06/13 00:14:32;;;;;;;8.10;5.82;;;;;;;18.01;95.70;94531.19;4963939;28;20646;-68
2023/06/13 00:17:00;;;;;;;5.60;5.18;;;;;;;18.14;95.74;94525.97;4961835;28;20295;-70
2023/06/13 00:19:28;;;;;;;10.18;5.43;;;;;;;18.18;96.24;94525.66;4959917;28;20216;-66
2023/06/13 00:21:56;;;;;;;6.00;5.40;;;;;;;18.29;96.51;94520.56;4960567;28;20216;-66
2023/06/13 00:24:22;;;;;;;5.72;4.85;;;;;;;18.31;96.70;94518.69;4960562;28;20201;-66
2023/06/13 00:26:49;;;;;;;8.18;5.38;;;;;;;18.33;96.91;94516.81;4961518;28;20290;-66
2023/06/13 00:29:16;;;;;;;5.97;5.35;;;;;;;18.31;96.55;94517.91;4958944;28;20267;-69
2023/06/13 00:31:44;;;;;;;7.88;5.38;;;;;;;18.30;93.84;94517.06;4958337;28;20348;-70
2023/06/13 00:34:11;;;;;;;9.18;6.25;;;;;;;18.28;93.19;94512.97;4958262;28;20205;-69
2023/06/13 00:36:37;;;;;;;7.10;6.10;;;;;;;18.19;93.82;94519.59;4959507;28;20260;-65
2023/06/13 00:39:04;;;;;;;6.05;5.55;;;;;;;18.16;93.99;94518.97;4959617;28;20213;-66
2023/06/13 00:41:32;;;;;;;6.97;6.40;;;;;;;17.97;95.09;94520.31;4959814;28;20237;-67
2023/06/13 00:44:00;;;;;;;6.57;5.70;;;;;;;18.10;95.54;94524.56;4960487;28;20931;-64
2023/06/13 00:46:32;;;;;;;7.10;6.07;;;;;;;18.11;95.19;94513.34;4959944;28;20201;-66
2023/06/13 00:49:01;;;;;;;6.18;5.78;;;;;;;18.13;95.27;94519.19;4959631;28;20347;-71
2023/06/13 00:51:30;;;;;;;6.50;6.05;;;;;;;18.08;95.92;94511.81;4959695;28;20934;-67
2023/06/13 00:53:59;;;;;;;7.63;6.38;;;;;;;18.03;96.32;94511.34;4960170;28;20200;-67
2023/06/13 00:56:28;;;;;;;6.97;6.50;;;;;;;18.07;95.19;94510.16;4959516;28;20228;-69
2023/06/13 00:58:56;;;;;;;7.00;6.28;;;;;;;17.96;95.33;94512.69;4959582;28;20213;-71
2023/06/13 01:01:24;;;;;;;8.25;6.85;;;;;;;18.00;95.72;94514.94;4961413;28;20829;-65
2023/06/13 01:03:52;;;;;;;7.20;6.18;;;;;;;17.97;96.50;94509.19;4960245;28;20244;-69
2023/06/13 01:06:24;;;;;;;7.57;6.97;;;;;;;18.01;96.98;94505.47;4957817;28;20255;-69
2023/06/13 01:08:52;;;;;;;7.47;6.80;;;;;;;17.90;97.08;94510.56;4958017;28;20213;-67
2023/06/13 01:11:32;;;;;;;6.63;5.95;;;;;;;17.94;97.12;94504.28;4959270;28;20278;-66
2023/06/13 01:14:04;;;;;;;8.73;6.70;;;;;;;18.10;95.77;94509.94;4957475;28;20205;-67
2023/06/13 01:16:36;;;;;;;8.20;6.32;;;;;;;18.14;95.29;94506.22;4958564;28;20209;-68
2023/06/13 01:19:11;;;;;;;7.72;6.28;;;;;;;18.14;95.46;94507.97;4961572;28;20301;-69
2023/06/13 01:21:41;;;;;;;10.30;6.05;;;;;;;18.20;96.05;94507.56;4959004;28;21431;-66
2023/06/13 01:24:19;;;;;;;7.28;6.78;;;;;;;18.21;95.30;94507.44;4959520;28;20232;-66
2023/06/13 01:26:53;;;;;;;9.25;6.78;;;;;;;18.25;94.44;94503.72;4959112;28;20692;-68
2023/06/13 01:29:21;;;;;;;7.10;6.50;;;;;;;18.11;95.66;94509.03;4961119;28;20606;-68
2023/06/13 01:31:51;;;;;;;6.82;6.18;;;;;;;18.01;96.80;94510.63;4957004;28;20205;-69
2023/06/13 01:34:18;;;;;;;7.70;7.15;;;;;;;18.20;96.22;94510.13;4959279;28;20308;-66
2023/06/13 01:36:46;;;;;;;7.22;6.53;;;;;;;18.08;96.89;94514.38;4955121;28;20244;-71
2023/06/13 01:39:13;;;;;;;6.78;6.22;;;;;;;18.05;97.23;94512.06;4956973;28;20209;-69
2023/06/13 01:41:40;;;;;;;8.48;7.47;;;;;;;18.08;97.48;94516.13;4957138;28;20379;-69
2023/06/13 01:44:09;;;;;;;8.95;6.28;;;;;;;18.17;96.36;94513.72;4958870;28;20819;-65
2023/06/13 01:46:45;;;;;;;7.72;7.05;;;;;;;18.07;96.65;94510.16;4962435;28;20573;-69
2023/06/13 01:49:17;;;;;;;7.15;6.70;;;;;;;18.02;97.30;94517.41;4960577;28;20291;-66
2023/06/13 01:51:51;;;;;;;7.90;7.20;;;;;;;18.00;97.63;94514.13;4959360;28;20233;-68
2023/06/13 01:54:21;;;;;;;7.63;6.93;;;;;;;17.97;97.93;94514.34;4960497;28;20213;-67
2023/06/13 01:56:51;;;;;;;9.07;8.10;;;;;;;18.01;97.60;94514.00;4956476;28;20651;-65
2023/06/13 01:59:25;;;;;;;7.30;6.70;;;;;;;17.95;97.40;94505.91;4959419;28;20205;-67
2023/06/13 02:01:55;;;;;;;7.40;6.90;;;;;;;17.93;97.83;94507.78;4958936;28;20216;-66
2023/06/13 02:04:21;;;;;;;7.82;7.07;;;;;;;17.91;97.83;94505.31;4957572;28;20240;-71
2023/06/13 02:06:48;;;;;;;8.23;7.47;;;;;;;17.80;97.95;94505.25;4956814;28;20703;-65
2023/06/13 02:09:15;;;;;;;7.75;7.05;;;;;;;17.83;98.03;94506.75;4960536;28;20682;-70
2023/06/13 02:11:41;;;;;;;7.68;6.97;;;;;;;17.78;97.77;94499.41;4957590;28;20299;-69
2023/06/13 02:14:08;;;;;;;8.18;7.57;;;;;;;17.76;97.69;94497.88;4959501;28;20761;-70
2023/06/13 02:16:39;;;;;;;7.25;6.55;;;;;;;17.94;96.75;94509.41;4958461;28;20205;-67
2023/06/13 02:19:07;;;;;;;7.65;7.05;;;;;;;17.93;97.05;94498.31;4957743;28;20681;-69
2023/06/13 02:21:34;;;;;;;7.68;6.95;;;;;;;18.03;96.64;94506.19;4956404;28;20671;-66
2023/06/13 02:24:01;;;;;;;11.38;7.47;;;;;;;18.12;96.38;94505.50;4958031;28;20225;-66
2023/06/13 02:26:29;;;;;;;7.68;7.07;;;;;;;18.06;96.02;94493.13;4957641;28;20754;-68
2023/06/13 02:28:57;;;;;;;7.88;7.47;;;;;;;17.98;96.79;94501.38;4956569;28;20210;-71
2023/06/13 02:31:24;;;;;;;8.35;7.55;;;;;;;17.88;97.31;94504.69;4959458;28;20339;-66
2023/06/13 02:33:52;;;;;;;7.45;6.88;;;;;;;17.71;97.45;94487.91;4957629;28;20205;-67
2023/06/13 02:36:19;;;;;;;8.55;7.93;;;;;;;17.87;97.58;94513.34;4958879;28;20311;-70
2023/06/13 02:38:46;;;;;;;8.15;7.35;;;;;;;17.97;96.83;94516.91;4957769;28;20211;-67
2023/06/13 02:41:12;;;;;;;7.35;6.95;;;;;;;17.97;96.72;94519.47;4959404;28;20268;-69
2023/06/13 02:43:39;;;;;;;8.43;7.45;;;;;;;18.09;96.15;94516.03;4958751;28;20359;-71
2023/06/13 02:46:06;;;;;;;8.27;7.45;;;;;;;18.03;95.56;94508.75;4957037;28;20785;-71
2023/06/13 02:48:33;;;;;;;8.25;7.45;;;;;;;18.02;95.44;94515.66;4956059;28;20233;-66
2023/06/13 02:51:01;;;;;;;8.55;7.85;;;;;;;18.24;94.62;94519.25;4958489;28;20324;-68
2023/06/13 02:53:28;;;;;;;8.15;7.55;;;;;;;18.31;94.23;94523.81;4959067;28;20307;-67
2023/06/13 02:55:55;;;;;;;11.02;8.57;;;;;;;18.26;94.22;94515.66;4959928;28;20915;-67
2023/06/13 02:58:21;;;;;;;9.88;9.02;;;;;;;18.23;94.92;94525.34;4956899;28;22122;-68
2023/06/13 03:00:48;;;;;;;9.82;7.95;;;;;;;18.30;95.12;94527.38;4956830;28;20649;-71
2023/06/13 03:03:16;;;;;;;15.75;8.38;;;;;;;18.40;94.53;94521.53;4958735;28;20208;-68
2023/06/13 03:05:44;;;;;;;7.43;7.03;;;;;;;18.30;94.83;94529.94;4959680;28;20275;-67
2023/06/13 03:08:12;;;;;;;8.73;8.13;;;;;;;18.28;95.60;94528.41;4956230;28;20642;-68
2023/06/13 03:10:39;;;;;;;9.98;8.02;;;;;;;18.31;95.55;94528.97;4958616;28;20712;-71
2023/06/13 03:13:05;;;;;;;10.98;7.57;;;;;;;18.29;95.72;94533.44;4956946;28;20300;-69
2023/06/13 03:15:32;;;;;;;7.65;7.20;;;;;;;18.33;95.44;94534.84;4957483;28;20209;-72
2023/06/13 03:17:59;;;;;;;9.50;8.70;;;;;;;18.40;95.43;94542.94;4954828;28;20220;-69
2023/06/13 03:20:25;;;;;;;9.25;8.45;;;;;;;18.38;95.27;94533.69;4956828;28;21251;-69
2023/06/13 03:22:52;;;;;;;9.75;8.93;;;;;;;18.46;95.32;94531.38;4955302;28;20844;-67
2023/06/13 03:25:20;;;;;;;9.98;8.98;;;;;;;18.52;95.23;94531.75;4955647;28;20665;-67
2023/06/13 03:27:47;;;;;;;8.90;8.05;;;;;;;18.59;94.15;94532.97;4957841;28;20240;-67
2023/06/13 03:30:15;;;;;;;11.98;9.57;;;;;;;18.66;93.86;94531.59;4956378;28;20791;-68
2023/06/13 03:32:42;;;;;;;9.35;8.55;;;;;;;18.85;93.49;94527.66;4957714;28;20307;-66
2023/06/13 03:35:09;;;;;;;8.70;8.07;;;;;;;19.09;91.27;94530.16;4957917;28;20215;-70
2023/06/13 03:37:35;;;;;;;9.60;8.80;;;;;;;19.28;89.45;94528.66;4956869;28;20300;-71
2023/06/13 03:40:02;;;;;;;9.82;8.93;;;;;;;19.31;89.24;94532.75;4961158;28;20709;-66
2023/06/13 03:42:30;;;;;;;10.00;9.10;;;;;;;19.30;89.45;94533.72;4963273;28;20236;-68
2023/06/13 03:44:59;;;;;;;10.48;8.93;;;;;;;19.23;90.16;94533.34;4960287;28;20701;-68
2023/06/13 03:47:26;;;;;;;10.13;9.15;;;;;;;19.30;89.32;94534.50;4960515;28;20209;-67
2023/06/13 03:49:53;;;;;;;10.35;9.27;;;;;;;19.38;88.87;94542.47;4961285;28;20311;-72
2023/06/13 03:52:20;;;;;;;12.45;10.30;;;;;;;19.37;88.95;94540.00;4961631;28;20720;-67
2023/06/13 03:54:46;;;;;;;11.07;9.35;;;;;;;19.32;89.13;94542.09;4960254;28;20255;-71
2023/06/13 03:57:13;;;;;;;11.43;9.40;;;;;;;19.41;88.35;94540.59;4962372;28;20205;-68
2023/06/13 03:59:42;;;;;;;14.90;10.07;;;;;;;19.57;87.96;94546.25;4961458;28;20209;-68
2023/06/13 04:02:08;;;;;;;10.68;9.70;;;;;;;19.64;87.41;94540.50;4959040;28;20695;-65
2023/06/13 04:04:37;;;;;;;10.20;9.35;;;;;;;19.79;86.94;94545.44;4960567;28;20352;-71
2023/06/13 04:07:05;;;;;;;10.35;9.57;;;;;;;19.85;86.48;94550.09;4961732;28;20205;-67
2023/06/13 04:09:32;;;;;;;21.42;16.48;;;;;;;19.83;86.33;94551.97;4959843;28;20707;-66
2023/06/13 04:11:59;;;;;;;20.13;18.02;;;;;;;19.83;86.45;94552.78;4960290;28;20212;-71
2023/06/13 04:14:25;;;;;;;15.75;14.27;;;;;;;19.99;86.10;94552.41;4960328;28;20206;-71
2023/06/13 04:16:54;;;;;;;15.60;13.70;;;;;;;20.22;85.84;94553.19;4961036;28;20733;-65
2023/06/13 04:19:21;;;;;;;10.85;9.85;;;;;;;20.41;84.46;94552.56;4959870;28;20212;-69
2023/06/13 04:21:48;;;;;;;12.15;11.13;;;;;;;20.32;83.92;94554.91;4959972;28;20687;-65
2023/06/13 04:24:15;;;;;;;14.65;13.25;;;;;;;20.27;84.15;94557.03;4962009;28;20216;-66
2023/06/13 04:26:45;;;;;;;34.53;26.98;;;;;;;20.19;84.73;94568.91;4961024;28;20210;-70
2023/06/13 04:29:13;;;;;;;41.38;32.03;;;;;;;20.07;85.30;94569.84;4960041;28;20213;-68
2023/06/13 04:31:40;;;;;;;15.95;14.35;;;;;;;20.08;85.36;94567.16;4960795;28;20639;-69
2023/06/13 04:34:08;;;;;;;21.85;18.55;;;;;;;19.87;85.88;94574.00;4960160;28;20655;-67
2023/06/13 04:36:35;;;;;;;42.85;32.75;;;;;;;19.93;85.84;94573.53;4961159;28;20216;-67
2023/06/13 04:39:06;;;;;;;26.42;23.65;;;;;;;19.91;86.39;94571.06;4962801;28;20212;-70
2023/06/13 04:41:34;;;;;;;25.80;15.93;;;;;;;20.09;85.70;94573.94;4960306;28;20273;-68
2023/06/13 04:44:03;;;;;;;14.65;12.25;;;;;;;20.25;85.32;94579.56;4959546;28;20399;-66
2023/06/13 04:46:30;;;;;;;12.68;11.52;;;;;;;20.34;85.10;94568.50;4960357;28;20213;-73
2023/06/13 04:48:57;;;;;;;13.48;12.15;;;;;;;20.38;84.43;94571.69;4964364;28;20296;-64
2023/06/13 04:51:26;;;;;;;17.08;11.68;;;;;;;20.62;83.17;94576.66;4961437;28;20240;-66
2023/06/13 04:53:53;;;;;;;13.70;10.95;;;;;;;20.68;83.14;94576.16;4961355;28;20639;-71
2023/06/13 04:56:20;;;;;;;13.73;10.98;;;;;;;20.76;82.34;94578.94;4959161;28;20268;-67
2023/06/13 04:58:47;;;;;;;22.33;19.95;;;;;;;20.87;82.63;94581.47;4960724;28;20236;-68
2023/06/13 05:01:14;;;;;;;30.15;24.73;;;;;;;21.31;81.65;94580.41;4959543;28;20240;-67
2023/06/13 05:03:41;;;;;;;13.40;12.27;;;;;;;21.92;77.06;94580.41;4957887;28;20231;-67
2023/06/13 05:06:07;;;;;;;12.13;9.95;;;;;;;22.25;75.23;94587.06;4958496;28;21455;-68
2023/06/13 05:08:35;;;;;;;12.02;10.93;;;;;;;22.42;75.14;94592.53;4957660;28;20213;-67
2023/06/13 05:11:02;;;;;;;10.80;9.90;;;;;;;22.61;73.42;94587.38;4960810;28;20267;-70
2023/06/13 05:13:29;;;;;;;17.50;10.15;;;;;;;22.87;72.67;94596.28;4962470;28;20208;-67
2023/06/13 05:15:55;;;;;;;9.98;9.18;;;;;;;23.30;71.18;94588.03;4962929;28;20753;-69
2023/06/13 05:18:29;;;;;;;11.43;9.18;;;;;;;23.48;70.09;94588.13;4961912;28;20303;-69
2023/06/13 05:20:56;;;;;;;11.77;9.80;;;;;;;23.78;68.38;94588.88;4957532;28;20209;-69
2023/06/13 05:23:22;;;;;;;9.50;8.90;;;;;;;24.35;66.18;94583.41;4958528;28;20324;-66
2023/06/13 05:25:51;;;;;;;9.98;9.10;;;;;;;24.84;63.51;94586.47;4958730;28;20645;-66
2023/06/13 05:28:18;;;;;;;11.77;10.27;;;;;;;24.97;62.28;94584.38;4959603;28;20288;-67
2023/06/13 05:30:46;;;;;;;9.98;9.02;;;;;;;24.87;61.99;94568.00;4959982;28;20209;-71
2023/06/13 05:33:14;;;;;;;12.52;9.38;;;;;;;24.77;63.01;94580.25;4956904;28;20304;-66
2023/06/13 05:35:40;;;;;;;10.82;9.93;;;;;;;24.68;63.83;94584.56;4954653;28;20232;-71
2023/06/13 05:38:09;;;;;;;9.73;8.93;;;;;;;24.67;63.42;94582.94;4956247;28;20687;-65
2023/06/13 05:40:36;;;;;;;9.57;8.90;;;;;;;24.20;64.44;94577.06;4956451;28;20876;-66
2023/06/13 05:43:04;;;;;;;10.18;9.15;;;;;;;23.91;64.90;94579.81;4956227;28;20587;-68
2023/06/13 05:45:30;;;;;;;10.15;9.45;;;;;;;23.79;66.21;94585.31;4957284;28;22068;-65
2023/06/13 05:47:57;;;;;;;10.52;9.82;;;;;;;23.61;66.93;94580.06;4956374;28;20296;-66
2023/06/13 05:50:24;;;;;;;11.88;10.63;;;;;;;23.38;68.08;94592.53;4957846;28;20231;-68
2023/06/13 05:52:50;;;;;;;11.13;9.85;;;;;;;23.47;68.66;94591.69;4959359;28;20212;-68
2023/06/13 05:55:17;;;;;;;9.15;8.35;;;;;;;23.70;66.38;94592.19;4958754;28;20244;-67
2023/06/13 05:57:45;;;;;;;11.30;10.50;;;;;;;24.17;65.73;94600.72;4958734;28;20236;-67
2023/06/13 06:00:15;;;;;;;11.07;10.07;;;;;;;24.44;64.63;94591.31;4957640;28;20659;-64
2023/06/13 06:02:43;;;;;;;12.07;10.82;;;;;;;24.80;63.60;94594.72;4957553;28;20213;-67
2023/06/13 06:05:11;;;;;;;13.45;11.88;;;;;;;25.14;63.02;94589.69;4956030;28;20618;-66
2023/06/13 06:07:38;;;;;;;10.93;9.85;;;;;;;25.52;61.60;94594.50;4958327;28;20201;-66
2023/06/13 06:10:06;;;;;;;10.88;10.07;;;;;;;25.82;60.60;94587.22;4958547;28;20296;-66
2023/06/13 06:12:32;;;;;;;10.70;9.35;;;;;;;25.81;60.67;94585.56;4958591;28;20217;-65
2023/06/13 06:14:59;;;;;;;10.80;9.88;;;;;;;25.54;60.90;94584.75;4956897;28;21272;-68
2023/06/13 06:17:27;;;;;;;10.50;9.52;;;;;;;25.66;61.12;94574.94;4958195;28;20233;-69
2023/06/13 06:19:54;;;;;;;12.65;8.35;;;;;;;27.34;56.51;94579.09;4956473;28;20309;-69
2023/06/13 06:22:21;;;;;;;9.30;8.45;;;;;;;30.15;49.46;94575.06;4957871;28;20761;-68
2023/06/13 06:24:48;;;;;;;8.23;7.53;;;;;;;31.71;44.49;94572.56;4957013;28;20233;-66
2023/06/13 06:27:15;;;;;;;7.97;7.43;;;;;;;31.38;45.24;94580.19;4958547;28;20308;-66
2023/06/13 06:29:42;;;;;;;10.18;9.15;;;;;;;30.65;47.31;94574.25;4956721;28;20734;-67
2023/06/13 06:32:09;;;;;;;8.60;7.05;;;;;;;30.14;47.85;94573.44;4957799;28;20788;-66
2023/06/13 06:34:38;;;;;;;8.98;8.13;;;;;;;30.15;47.99;94574.25;4958773;28;20255;-67
2023/06/13 06:37:05;;;;;;;8.65;7.38;;;;;;;31.57;45.35;94566.41;4958301;28;20307;-68
2023/06/13 06:39:32;;;;;;;8.65;7.88;;;;;;;32.12;42.26;94569.97;4957843;28;20217;-67
2023/06/13 06:41:59;;;;;;;8.00;7.28;;;;;;;32.95;40.96;94568.84;4956678;28;20260;-71
2023/06/13 06:44:25;;;;;;;11.40;7.60;;;;;;;33.90;39.83;94564.22;4958897;28;20706;-67
2023/06/13 06:46:52;;;;;;;7.72;7.00;;;;;;;35.32;36.58;94564.78;4955920;28;20292;-70
2023/06/13 06:49:19;;;;;;;6.85;5.00;;;;;;;37.33;31.48;94563.91;4957709;28;20205;-66
2023/06/13 06:51:48;;;;;;;6.90;6.20;;;;;;;39.26;30.06;94555.44;4957800;28;20235;-69
2023/06/13 06:54:15;;;;;;;6.07;5.07;;;;;;;39.81;27.38;94553.91;4935948;28;20325;-70
2023/06/13 06:56:42;;;;;;;5.50;4.72;;;;;;;39.06;29.08;94561.22;4951828;28;20209;-66
2023/06/13 06:59:08;;;;;;;19.13;11.25;;;;;;;38.16;30.66;94555.72;4958029;28;20800;-67
2023/06/13 07:01:35;;;;;;;9.40;7.07;;;;;;;36.20;33.44;94561.91;4958287;28;20306;-68
2023/06/13 07:04:03;;;;;;;9.88;6.07;;;;;;;34.05;36.06;94570.06;4958516;28;21182;-64
2023/06/13 07:06:30;;;;;;;9.88;6.22;;;;;;;31.78;41.15;94557.66;4956926;28;21128;-68
2023/06/13 07:08:58;;;;;;;7.97;7.32;;;;;;;29.86;45.40;94572.44;4958161;28;20455;-65
2023/06/13 07:11:25;;;;;;;6.32;5.90;;;;;;;28.35;49.51;94567.06;4956158;28;20722;-68
2023/06/13 07:13:52;;;;;;;7.85;7.00;;;;;;;27.38;51.93;94562.13;4954205;28;20557;-69
2023/06/13 07:16:19;;;;;;;7.70;7.05;;;;;;;26.49;54.82;94567.28;4957099;28;20488;-68
2023/06/13 07:18:46;;;;;;;7.70;7.07;;;;;;;26.27;55.96;94568.66;4955700;28;20287;-67
2023/06/13 07:21:13;;;;;;;8.90;6.38;;;;;;;26.04;56.12;94563.22;4956347;28;21361;-67
2023/06/13 07:23:39;;;;;;;7.75;7.25;;;;;;;25.68;57.24;94562.59;4957572;28;20324;-67
2023/06/13 07:26:07;;;;;;;7.05;6.15;;;;;;;25.57;57.67;94568.84;4958241;28;20745;-66
2023/06/13 07:28:34;;;;;;;7.43;6.72;;;;;;;25.70;58.26;94560.66;4957474;28;20304;-69
2023/06/13 07:31:02;;;;;;;8.05;7.25;;;;;;;26.66;55.24;94563.75;4957356;28;20213;-68
2023/06/13 07:33:29;;;;;;;8.32;7.00;;;;;;;27.32;53.65;94553.16;4955300;28;20209;-68
2023/06/13 07:35:57;;;;;;;7.63;7.03;;;;;;;27.56;52.49;94557.50;4955510;28;21587;-69
2023/06/13 07:38:24;;;;;;;7.22;6.72;;;;;;;27.51;53.38;94549.34;4954654;28;20201;-67
2023/06/13 07:40:50;;;;;;;9.15;6.47;;;;;;;27.49;52.86;94551.31;4955404;28;20243;-67
2023/06/13 07:43:19;;;;;;;7.57;6.72;;;;;;;28.81;49.54;94553.25;4955630;28;20208;-65
2023/06/13 07:45:46;;;;;;;7.82;5.47;;;;;;;29.70;47.82;94552.44;4954895;28;20228;-68
2023/06/13 07:48:13;;;;;;;6.50;5.90;;;;;;;30.37;45.24;94555.75;4954289;28;21845;-67
2023/06/13 07:50:41;;;;;;;6.22;5.70;;;;;;;30.07;45.02;94556.81;4957528;28;20611;-67
2023/06/13 07:53:08;;;;;;;6.68;6.18;;;;;;;29.49;46.64;94549.72;4956469;28;20248;-64
2023/06/13 07:55:36;;;;;;;8.93;5.88;;;;;;;29.19;47.05;94541.00;4957365;28;20282;-66
2023/06/13 07:58:03;;;;;;;7.07;6.38;;;;;;;30.30;44.44;94557.50;4957051;28;20803;-66
2023/06/13 08:00:31;;;;;;;6.50;6.00;;;;;;;30.60;43.43;94552.19;4956941;28;20331;-67
2023/06/13 08:02:58;;;;;;;7.63;5.60;;;;;;;29.97;44.60;94553.59;4957356;28;20213;-64
2023/06/13 08:05:24;;;;;;;6.65;6.07;;;;;;;28.76;47.60;94556.34;4957095;28;20229;-66
2023/06/13 08:07:51;;;;;;;6.50;5.85;;;;;;;27.72;51.17;94554.88;4955586;28;20316;-66
2023/06/13 08:10:18;;;;;;;6.63;6.18;;;;;;;26.68;54.04;94557.38;4956125;28;20240;-66
2023/06/13 08:12:45;;;;;;;8.27;5.97;;;;;;;25.99;56.09;94555.88;4956060;28;20219;-67
2023/06/13 08:15:11;;;;;;;7.90;6.38;;;;;;;25.40;57.69;94548.91;4957885;28;20236;-66
2023/06/13 08:17:41;;;;;;;47.17;38.75;;;;;;;24.78;59.16;94532.50;4956100;28;20293;-65
2023/06/13 08:20:09;;;;;;;8.30;7.78;;;;;;;24.67;60.21;94553.53;4941292;28;20209;-65
2023/06/13 08:22:37;;;;;;;8.13;7.43;;;;;;;24.77;60.54;94554.25;4953732;28;20288;-66
2023/06/13 08:25:05;;;;;;;8.65;7.95;;;;;;;25.27;59.26;94548.47;4954869;28;20868;-66
2023/06/13 08:27:32;;;;;;;7.82;7.22;;;;;;;26.44;57.07;94546.94;4957956;28;20238;-66
2023/06/13 08:29:59;;;;;;;7.50;7.00;;;;;;;29.28;49.13;94543.34;4954964;28;20702;-65
2023/06/13 08:32:28;;;;;;;6.82;6.25;;;;;;;31.29;43.83;94541.94;4956158;28;20222;-65
2023/06/13 08:34:56;;;;;;;8.43;7.15;;;;;;;31.24;43.96;94546.94;4959894;28;20697;-64
2023/06/13 08:37:22;;;;;;;9.20;8.27;;;;;;;30.31;46.02;94532.91;4955065;28;20846;-65
2023/06/13 08:39:49;;;;;;;8.85;8.00;;;;;;;28.58;49.52;94532.28;4958214;28;20272;-65
2023/06/13 08:42:16;;;;;;;12.15;9.18;;;;;;;27.02;52.94;94539.00;4958837;28;20244;-65
2023/06/13 08:44:43;;;;;;;13.77;9.38;;;;;;;25.83;55.55;94539.38;4947488;28;20726;-64
2023/06/13 08:47:10;;;;;;;10.85;9.90;;;;;;;25.20;56.95;94537.91;4958999;28;20290;-64
2023/06/13 08:49:37;;;;;;;9.30;8.48;;;;;;;24.65;59.24;94542.47;4960197;28;22427;-64
2023/06/13 08:52:11;;;;;;;12.02;9.70;;;;;;;24.02;61.51;94545.03;4957841;28;20288;-65
2023/06/13 08:54:39;;;;;;;11.15;8.98;;;;;;;23.62;63.64;94553.16;4951456;28;20339;-65
2023/06/13 08:57:07;;;;;;;8.68;7.85;;;;;;;23.17;64.70;94545.22;4957355;28;20657;-65
2023/06/13 08:59:37;;;;;;;11.60;9.40;;;;;;;22.73;66.10;94555.22;4958078;28;20235;-64
2023/06/13 09:02:05;;;;;;;9.45;8.55;;;;;;;22.50;67.73;94553.84;4954660;28;20213;-63
2023/06/13 09:04:35;;;;;;;11.30;6.03;;;;;;;22.09;69.47;94555.69;4957758;28;20317;-65
2023/06/13 09:07:02;;;;;;;6.22;5.82;;;;;;;21.60;72.09;94536.59;4956046;28;21769;-66
2023/06/13 09:09:32;;;;;;;7.15;6.22;;;;;;;21.38;73.63;94554.88;4955823;28;20339;-68
2023/06/13 09:12:00;;;;;;;5.95;5.50;;;;;;;21.27;74.79;94552.38;4955832;28;20320;-65
2023/06/13 09:14:26;;;;;;;5.80;5.43;;;;;;;21.34;74.75;94558.66;4953134;28;21858;-65
2023/06/13 09:16:55;;;;;;;5.72;5.32;;;;;;;21.31;74.37;94553.75;4957010;28;20197;-63
2023/06/13 09:19:22;;;;;;;5.50;5.20;;;;;;;21.44;74.73;94548.38;4954951;28;20201;-61
2023/06/13 09:21:49;;;;;;;5.85;5.45;;;;;;;21.88;72.82;94557.50;4954510;28;20209;-63
2023/06/13 09:24:16;;;;;;;7.97;5.40;;;;;;;22.19;71.38;94560.91;4956325;28;20292;-63
2023/06/13 09:26:46;;;;;;;7.95;5.65;;;;;;;22.37;70.78;94569.63;4955435;28;20715;-61
2023/06/13 09:29:12;;;;;;;6.78;5.45;;;;;;;22.50;70.81;94559.03;4956252;28;20230;-62
2023/06/13 09:31:40;;;;;;;6.28;5.90;;;;;;;22.40;71.21;94564.19;4957135;28;20272;-62
2023/06/13 09:34:07;;;;;;;5.75;5.25;;;;;;;22.09;71.20;94571.22;4954346;28;20205;-60
2023/06/13 09:36:35;;;;;;;5.50;5.10;;;;;;;21.73;71.66;94570.81;4955551;28;20654;-61
2023/06/13 09:39:04;;;;;;;6.63;6.13;;;;;;;21.59;74.08;94568.56;4956417;28;20627;-66
2023/06/13 09:41:31;;;;;;;6.18;5.80;;;;;;;21.47;74.92;94564.44;4954828;28;20699;-70
2023/06/13 09:44:03;;;;;;;7.05;6.35;;;;;;;21.18;77.25;94559.09;4956893;28;20291;-65
2023/06/13 09:46:30;;;;;;;7.38;5.63;;;;;;;20.94;77.46;94554.19;4959276;28;20769;-65
2023/06/13 09:48:57;;;;;;;6.82;6.32;;;;;;;20.75;78.46;94561.00;4958814;28;20218;-65
2023/06/13 09:51:23;;;;;;;8.70;7.90;;;;;;;20.58;81.03;94554.59;4958693;28;20229;-65
2023/06/13 09:53:51;;;;;;;6.60;6.10;;;;;;;20.53;81.56;94559.34;4958168;28;20209;-66
2023/06/13 09:56:18;;;;;;;6.88;6.47;;;;;;;20.54;81.35;94553.22;4956145;28;20212;-66
2023/06/13 09:58:44;;;;;;;7.80;7.15;;;;;;;20.64;82.78;94548.94;4958484;28;20209;-65
2023/06/13 10:01:15;;;;;;;7.88;7.32;;;;;;;20.75;81.50;94561.81;4956865;28;20213;-66
2023/06/13 10:03:42;;;;;;;7.60;7.10;;;;;;;20.80;81.72;94556.25;4956907;28;20264;-67
2023/06/13 10:06:09;;;;;;;8.20;7.63;;;;;;;21.08;80.25;94562.56;4957150;28;20636;-62
2023/06/13 10:08:35;;;;;;;8.98;8.07;;;;;;;21.29;80.27;94555.63;4958248;28;20594;-64
2023/06/13 10:11:08;;;;;;;8.32;7.65;;;;;;;21.33;79.58;94551.84;4957205;28;20209;-66
2023/06/13 10:13:45;;;;;;;9.60;8.65;;;;;;;21.54;80.01;94550.03;4957010;28;20688;-66
2023/06/13 10:16:14;;;;;;;10.68;7.75;;;;;;;21.66;79.55;94543.84;4957397;28;20209;-66
2023/06/13 10:18:42;;;;;;;11.27;7.60;;;;;;;21.55;78.70;94549.09;4956897;28;20209;-67
2023/06/13 10:21:12;;;;;;;7.88;7.28;;;;;;;21.60;78.07;94554.69;4956593;28;20209;-63
2023/06/13 10:23:46;;;;;;;8.20;7.63;;;;;;;21.65;78.32;94549.97;4956977;28;20216;-63
2023/06/13 10:26:27;;;;;;;8.07;7.25;;;;;;;21.66;77.79;94548.19;4955987;28;20229;-64
2023/06/13 10:29:10;;;;;;;8.45;7.78;;;;;;;21.71;80.60;94548.63;4956714;28;22248;-63
2023/06/13 10:31:48;;;;;;;8.38;7.57;;;;;;;21.55;79.35;94528.41;4957092;28;20681;-63
2023/06/13 10:34:36;;;;;;;9.38;8.35;;;;;;;21.62;79.39;94557.97;4955944;28;20282;-64
2023/06/13 10:37:38;;;;;;;9.30;8.27;;;;;;;21.58;80.16;94543.66;4956134;28;20212;-64
2023/06/13 10:40:29;;;;;;;13.80;11.15;;;;;;;21.62;81.13;94550.22;4957051;28;20224;-62
2023/06/13 10:43:05;;;;;;;10.75;9.50;;;;;;;21.75;82.50;94538.84;4956361;28;20691;-65
2023/06/13 10:45:32;;;;;;;11.02;9.85;;;;;;;21.92;81.58;94543.38;4955118;28;20224;-64
2023/06/13 10:48:05;;;;;;;11.23;10.10;;;;;;;21.96;81.09;94544.75;4956386;28;20727;-65
2023/06/13 10:50:37;;;;;;;12.77;9.40;;;;;;;22.13;81.10;94541.53;4957192;28;20271;-64
2023/06/13 10:53:03;;;;;;;13.02;11.45;;;;;;;22.31;80.13;94539.91;4955836;28;20699;-64
2023/06/13 10:55:32;;;;;;;13.88;10.48;;;;;;;22.44;78.00;94534.50;4955599;28;20954;-64
2023/06/13 10:58:01;;;;;;;9.43;8.48;;;;;;;22.50;74.41;94535.72;4957399;28;20205;-64
2023/06/13 11:00:29;;;;;;;9.80;9.00;;;;;;;22.41;74.15;94534.75;4955996;28;20224;-64
2023/06/13 11:03:04;;;;;;;11.23;10.32;;;;;;;22.65;75.50;94527.41;4956092;28;20713;-65
2023/06/13 11:05:34;;;;;;;10.95;9.95;;;;;;;22.84;75.49;94536.94;4956830;28;20801;-64
2023/06/13 11:08:00;;;;;;;11.55;10.45;;;;;;;23.12;75.12;94537.03;4955908;28;20209;-64
2023/06/13 11:10:30;;;;;;;11.68;10.32;;;;;;;23.40;75.41;94534.38;4956796;28;20209;-64
2023/06/13 11:12:57;;;;;;;13.32;12.18;;;;;;;23.73;73.97;94535.66;4955172;28;20209;-63
2023/06/13 11:15:25;;;;;;;27.60;23.83;;;;;;;23.94;72.33;94530.22;4955909;28;20224;-63
2023/06/13 11:18:27;;;;;;;20.50;13.73;;;;;;;24.08;72.33;94537.50;4955665;28;21469;-63
2023/06/13 11:20:57;;;;;;;12.85;10.52;;;;;;;24.06;72.47;94531.63;4955395;28;20208;-64
2023/06/13 11:23:37;;;;;;;13.00;10.00;;;;;;;24.19;71.83;94528.69;4955376;28;20793;-63
2023/06/13 11:26:04;;;;;;;10.48;9.57;;;;;;;24.39;70.73;94539.78;4955178;28;20294;-64
2023/06/13 11:28:31;;;;;;;9.07;8.43;;;;;;;24.52;69.09;94547.19;4956088;28;20205;-64
2023/06/13 11:31:02;;;;;;;9.82;9.02;;;;;;;24.39;69.32;94543.22;4956880;28;20710;-64
2023/06/13 11:33:32;;;;;;;11.52;9.35;;;;;;;24.25;68.31;94548.09;4955041;28;20240;-64
2023/06/13 11:35:59;;;;;;;9.68;8.82;;;;;;;24.09;69.68;94538.31;4953238;28;20585;-64